Feed Springs, Ohio
Current Conditions -  °F | °C
As of 3:53 AM on Wednesday 28 Jan 2015 (Local Time) from KPHD Reporting Station
Overcast Overcast  
Wind Chill: 12°   Ceiling: 1400
Heat Index: 12°   Visibility: 8mi
Dew Point:   Wind: 0mph
Humidity: 84%   Direction: NA
Pressure: 30.25"   Gusts: NA
Location:  40.3767°N, 81.2875°W
Report Text: KPHD 280853Z AUTO 00000KT 8SM OVC014 M11/M13 A3025 RMK AO2 SLP258 I1000 I3000 T11111133 53014
Loading
Personal Weather Stations






























Interactive Weather Map New forecast layout! Learn more

10-Day Weather Forecast

Advertisements
Track Severe Weather on mobile